createdAt,value
2023-02-12T00:01:14.719Z,14.13
2023-02-12T00:03:43.038Z,17.20
2023-02-12T00:06:13.534Z,11.57
2023-02-12T00:08:42.275Z,16.03
2023-02-12T00:11:11.857Z,20.20
2023-02-12T00:13:39.359Z,20.43
2023-02-12T00:16:10.077Z,14.90
2023-02-12T00:18:37.922Z,14.47
2023-02-12T00:21:08.676Z,10.47
2023-02-12T00:23:36.778Z,15.90
2023-02-12T00:26:07.677Z,16.03
2023-02-12T00:28:35.340Z,16.43
2023-02-12T00:31:06.846Z,19.80
2023-02-12T00:33:36.006Z,20.33
2023-02-12T00:36:03.760Z,20.30
2023-02-12T00:38:31.331Z,13.37
2023-02-12T00:40:58.956Z,17.13
2023-02-12T00:43:27.491Z,21.70
2023-02-12T00:45:55.333Z,16.50
2023-02-12T00:48:23.031Z,12.87
2023-02-12T00:50:52.092Z,11.50
2023-02-12T00:53:20.210Z,14.40
2023-02-12T00:55:47.866Z,19.13
2023-02-12T00:58:18.802Z,17.33
2023-02-12T01:00:46.518Z,19.50
2023-02-12T01:03:14.323Z,10.20
2023-02-12T01:05:42.447Z,19.13
2023-02-12T01:08:13.390Z,13.27
2023-02-12T01:10:40.963Z,13.73
2023-02-12T01:13:09.238Z,15.53
2023-02-12T01:15:36.738Z,11.90
2023-02-12T01:18:05.924Z,16.60
2023-02-12T01:20:33.544Z,13.90
2023-02-12T01:23:01.569Z,16.90
2023-02-12T01:25:30.416Z,10.30
2023-02-12T01:27:57.915Z,11.63
2023-02-12T01:30:25.851Z,13.40
2023-02-12T01:32:55.451Z,13.37
2023-02-12T01:35:22.977Z,16.23
2023-02-12T01:37:50.927Z,14.73
2023-02-12T01:40:18.997Z,12.17
2023-02-12T01:42:47.849Z,13.60
2023-02-12T01:45:45.728Z,12.50
2023-02-12T01:48:14.885Z,11.40
2023-02-12T01:50:43.980Z,9.37
2023-02-12T01:53:20.025Z,12.33
2023-02-12T01:55:56.237Z,8.77
2023-02-12T01:58:27.686Z,9.30
2023-02-12T02:00:55.512Z,10.53
2023-02-12T02:03:23.203Z,12.10
2023-02-12T02:06:01.069Z,11.23
2023-02-12T02:08:28.888Z,11.00
2023-02-12T02:10:56.469Z,14.80
2023-02-12T02:13:42.942Z,17.80
2023-02-12T02:16:18.995Z,9.40
2023-02-12T02:18:54.021Z,21.50
2023-02-12T02:21:50.908Z,11.80
2023-02-12T02:24:38.531Z,10.07
2023-02-12T02:27:28.022Z,14.73
2023-02-12T02:30:25.865Z,17.93
2023-02-12T02:33:00.268Z,9.63
2023-02-12T02:35:33.891Z,8.47
2023-02-12T02:38:14.743Z,13.33
2023-02-12T02:40:52.886Z,8.60
2023-02-12T02:43:26.203Z,16.37
2023-02-12T02:46:00.429Z,8.60
2023-02-12T02:48:34.007Z,12.90
2023-02-12T02:51:06.366Z,12.30
2023-02-12T02:53:38.623Z,15.43
2023-02-12T02:56:09.539Z,14.80
2023-02-12T02:58:41.605Z,17.73
2023-02-12T03:01:14.413Z,12.27
2023-02-12T03:03:48.572Z,14.60
2023-02-12T03:06:21.145Z,13.87
2023-02-12T03:08:53.434Z,9.63
2023-02-12T03:11:26.468Z,11.73
2023-02-12T03:13:59.172Z,12.20
2023-02-12T03:16:30.083Z,14.33
2023-02-12T03:19:04.089Z,15.70
2023-02-12T03:21:38.340Z,12.90
2023-02-12T03:24:13.621Z,14.30
2023-02-12T03:26:46.402Z,7.80
2023-02-12T03:29:14.553Z,11.80
2023-02-12T03:31:54.963Z,11.50
2023-02-12T03:34:32.100Z,15.63
2023-02-12T03:37:05.343Z,7.83
2023-02-12T03:39:44.437Z,12.57
2023-02-12T03:42:15.138Z,8.73
2023-02-12T03:44:51.340Z,8.17
2023-02-12T03:47:26.692Z,7.97
2023-02-12T03:50:01.492Z,10.70
2023-02-12T03:52:31.175Z,13.47
2023-02-12T03:54:59.292Z,9.53
2023-02-12T03:57:31.317Z,10.60
2023-02-12T03:59:59.191Z,10.77
2023-02-12T04:02:28.832Z,9.43
2023-02-12T04:04:56.375Z,9.97
2023-02-12T04:07:23.949Z,7.10
2023-02-12T04:09:51.585Z,7.67
2023-02-12T04:12:34.544Z,8.20
2023-02-12T04:15:15.190Z,10.27
2023-02-12T04:17:51.338Z,8.20
2023-02-12T04:20:29.124Z,7.53
2023-02-12T04:23:13.380Z,8.37
2023-02-12T04:25:54.389Z,9.83
2023-02-12T04:28:32.587Z,7.30
2023-02-12T04:31:04.981Z,8.23
2023-02-12T04:33:45.709Z,6.40
2023-02-12T04:36:17.870Z,9.07
2023-02-12T04:38:50.973Z,8.70
2023-02-12T04:41:18.787Z,7.23
2023-02-12T04:43:46.459Z,8.40
2023-02-12T04:46:13.994Z,6.90
2023-02-12T04:48:51.284Z,7.80
2023-02-12T04:51:18.746Z,10.23
2023-02-12T04:53:46.209Z,8.13
2023-02-12T04:56:14.345Z,6.43
2023-02-12T04:58:42.017Z,6.80
2023-02-12T05:01:10.950Z,6.07
2023-02-12T05:03:38.457Z,6.03
2023-02-12T05:06:09.932Z,8.20
2023-02-12T05:08:37.365Z,6.70
2023-02-12T05:11:06.182Z,9.70
2023-02-12T05:13:34.080Z,8.70
2023-02-12T05:16:04.475Z,6.77
2023-02-12T05:18:32.171Z,6.30
2023-02-12T05:21:01.635Z,6.70
2023-02-12T05:23:32.798Z,8.03
2023-02-12T05:26:01.220Z,6.90
2023-02-12T05:28:29.501Z,6.43
2023-02-12T05:31:00.809Z,7.73
2023-02-12T05:33:28.497Z,6.80
2023-02-12T05:35:56.511Z,8.80
2023-02-12T05:38:24.307Z,11.93
2023-02-12T05:40:53.084Z,9.27
2023-02-12T05:43:20.640Z,8.73
2023-02-12T05:45:48.111Z,9.53
2023-02-12T05:48:15.976Z,11.23
2023-02-12T05:50:43.412Z,9.20
2023-02-12T05:53:10.924Z,8.90
2023-02-12T05:55:38.451Z,7.97
2023-02-12T05:58:07.356Z,7.47
2023-02-12T06:00:34.821Z,6.90
2023-02-12T06:03:02.434Z,9.43
2023-02-12T06:05:32.628Z,9.37
2023-02-12T06:08:00.101Z,10.13
2023-02-12T06:10:27.661Z,9.93
2023-02-12T06:12:55.491Z,8.20
2023-02-12T06:15:24.411Z,9.93
2023-02-12T06:17:51.851Z,8.10
2023-02-12T06:20:19.323Z,15.60
2023-02-12T06:22:46.758Z,13.43
2023-02-12T06:25:14.264Z,20.33
2023-02-12T06:27:41.724Z,17.20
2023-02-12T06:30:10.252Z,19.00
2023-02-12T06:32:39.035Z,31.53
2023-02-12T06:35:07.384Z,14.67
2023-02-12T06:37:36.951Z,11.53
2023-02-12T06:40:05.088Z,26.43
2023-02-12T06:42:33.224Z,22.00
2023-02-12T06:45:00.686Z,21.23
2023-02-12T06:47:28.558Z,19.07
2023-02-12T06:49:57.324Z,17.60
2023-02-12T06:52:24.866Z,23.13
2023-02-12T06:54:52.325Z,19.33
2023-02-12T06:57:19.946Z,20.23
2023-02-12T06:59:47.434Z,19.80
2023-02-12T07:02:14.844Z,23.43
2023-02-12T07:04:42.275Z,18.07
2023-02-12T07:07:11.194Z,17.00
2023-02-12T07:09:38.852Z,21.33
2023-02-12T07:12:06.698Z,22.93
2023-02-12T07:14:34.149Z,19.30
2023-02-12T07:17:03.703Z,21.77
2023-02-12T07:19:31.756Z,20.47
2023-02-12T07:21:59.235Z,21.73
2023-02-12T07:24:28.217Z,19.30
2023-02-12T07:26:55.674Z,19.30
2023-02-12T07:29:23.138Z,17.70
2023-02-12T07:31:50.649Z,15.73
2023-02-12T07:34:18.159Z,22.40
2023-02-12T07:36:45.645Z,18.67
2023-02-12T07:39:15.195Z,17.07
2023-02-12T07:41:43.965Z,18.10
2023-02-12T07:44:13.425Z,16.47
2023-02-12T07:46:46.221Z,20.90
2023-02-12T07:49:17.763Z,18.60
2023-02-12T07:51:45.964Z,19.23
2023-02-12T07:54:14.981Z,19.27
2023-02-12T07:56:46.839Z,18.90
2023-02-12T07:59:16.547Z,18.77
2023-02-12T08:01:47.832Z,19.17
2023-02-12T08:04:17.020Z,17.17
2023-02-12T08:06:46.379Z,18.50
2023-02-12T08:09:16.255Z,19.00
2023-02-12T08:11:45.492Z,20.80
2023-02-12T08:14:14.645Z,16.77
2023-02-12T08:16:43.366Z,16.93
2023-02-12T08:19:19.038Z,19.30
2023-02-12T08:21:50.104Z,13.53
2023-02-12T08:24:17.603Z,22.47
2023-02-12T08:26:46.381Z,12.10
2023-02-12T08:29:16.405Z,24.97
2023-02-12T08:31:45.783Z,17.93
2023-02-12T08:34:19.424Z,21.70
2023-02-12T08:36:48.087Z,23.13
2023-02-12T08:39:16.500Z,22.97
2023-02-12T08:41:46.071Z,18.37
2023-02-12T08:44:14.145Z,14.90
2023-02-12T08:46:45.930Z,16.80
2023-02-12T08:49:15.326Z,15.80
2023-02-12T08:51:45.162Z,14.40
2023-02-12T08:54:15.654Z,14.27
2023-02-12T08:56:45.097Z,18.73
2023-02-12T08:59:15.013Z,16.93
2023-02-12T09:01:43.601Z,13.10
2023-02-12T09:04:15.100Z,21.00
2023-02-12T09:06:42.588Z,14.73
2023-02-12T09:09:10.058Z,12.50
2023-02-12T09:11:37.711Z,16.50
2023-02-12T09:14:07.655Z,18.27
2023-02-12T09:16:39.603Z,19.23
2023-02-12T09:19:07.162Z,16.03
2023-02-12T09:21:34.767Z,18.30
2023-02-12T09:24:03.408Z,15.37
2023-02-12T09:26:31.439Z,16.20
2023-02-12T09:28:58.964Z,15.43
2023-02-12T09:31:28.701Z,15.50
2023-02-12T09:34:00.333Z,20.77
2023-02-12T09:36:28.301Z,15.50
2023-02-12T09:38:56.536Z,16.57
2023-02-12T09:41:47.557Z,13.90
2023-02-12T09:44:21.468Z,16.40
2023-02-12T09:46:52.331Z,15.37
2023-02-12T09:49:34.385Z,16.00
2023-02-12T09:52:02.699Z,12.13
2023-02-12T09:54:37.465Z,16.97
2023-02-12T09:57:08.093Z,17.87
2023-02-12T09:59:40.232Z,12.07
2023-02-12T10:02:15.138Z,14.77
2023-02-12T10:04:59.692Z,10.40
2023-02-12T10:07:39.638Z,15.10
2023-02-12T10:10:22.782Z,14.20
2023-02-12T10:12:54.290Z,14.90
2023-02-12T10:15:36.184Z,12.57
2023-02-12T10:18:21.039Z,12.67
2023-02-12T10:21:11.993Z,15.20
2023-02-12T10:24:06.665Z,13.27
2023-02-12T10:26:39.021Z,17.93
2023-02-12T10:29:13.854Z,15.33
2023-02-12T10:31:44.967Z,17.30
2023-02-12T10:34:20.835Z,18.73
2023-02-12T10:36:52.654Z,23.80
2023-02-12T10:39:24.121Z,25.87
2023-02-12T10:41:59.193Z,25.40
2023-02-12T10:44:26.892Z,20.03
2023-02-12T10:46:54.537Z,18.90
2023-02-12T10:49:22.952Z,21.60
2023-02-12T10:52:05.925Z,19.67
2023-02-12T10:54:36.694Z,21.07
2023-02-12T10:57:18.031Z,20.33
2023-02-12T10:59:47.645Z,14.80
2023-02-12T11:02:24.477Z,14.40
2023-02-12T11:04:53.747Z,17.23
2023-02-12T11:07:24.041Z,13.33
2023-02-12T11:09:53.534Z,13.30
2023-02-12T11:12:27.124Z,15.73
2023-02-12T11:14:58.093Z,10.40
2023-02-12T11:17:29.668Z,12.17
2023-02-12T11:20:06.353Z,9.27
2023-02-12T11:22:35.258Z,9.90
2023-02-12T11:25:15.807Z,10.47
2023-02-12T11:27:43.975Z,12.10
2023-02-12T11:30:16.320Z,11.67
2023-02-12T11:32:44.285Z,10.20
2023-02-12T11:35:18.218Z,12.33
2023-02-12T11:37:48.177Z,12.17
2023-02-12T11:40:22.222Z,18.27
2023-02-12T11:42:53.437Z,11.23
2023-02-12T11:45:23.613Z,14.00
2023-02-12T11:47:52.146Z,14.07
2023-02-12T11:50:28.077Z,12.20
2023-02-12T11:53:00.000Z,12.97
2023-02-12T11:55:33.305Z,10.07
2023-02-12T11:58:04.589Z,13.57
2023-02-12T12:00:37.904Z,10.70
2023-02-12T12:03:14.029Z,11.60
2023-02-12T12:05:46.476Z,10.40
2023-02-12T12:08:22.482Z,13.07
2023-02-12T12:10:56.421Z,9.83
2023-02-12T12:13:36.096Z,15.50
2023-02-12T12:16:27.665Z,12.87
2023-02-12T12:19:19.154Z,8.00
2023-02-12T12:21:55.651Z,10.30
2023-02-12T12:24:32.173Z,11.47
2023-02-12T12:27:14.180Z,11.30
2023-02-12T12:29:52.333Z,12.30
2023-02-12T12:32:22.214Z,9.90
2023-02-12T12:34:49.801Z,11.23
2023-02-12T12:37:27.948Z,15.37
2023-02-12T12:40:17.324Z,14.13
2023-02-12T12:42:59.180Z,9.40
2023-02-12T12:45:46.243Z,10.43
2023-02-12T12:48:24.294Z,10.17
2023-02-12T12:51:06.425Z,12.87
2023-02-12T12:53:45.932Z,10.90
2023-02-12T12:56:30.149Z,12.30
2023-02-12T12:59:18.508Z,9.87
2023-02-12T13:02:04.187Z,15.13
2023-02-12T13:05:00.224Z,8.07
2023-02-12T13:07:43.588Z,11.37
2023-02-12T13:10:26.862Z,10.77
2023-02-12T13:13:07.756Z,13.87
2023-02-12T13:15:42.948Z,10.50
2023-02-12T13:18:25.343Z,14.27
2023-02-12T13:21:01.552Z,15.87
2023-02-12T13:23:39.244Z,11.67
2023-02-12T13:26:15.836Z,10.87
2023-02-12T13:28:47.617Z,12.93
2023-02-12T13:31:32.584Z,14.33
2023-02-12T13:34:03.798Z,10.83
2023-02-12T13:36:31.620Z,15.87
2023-02-12T13:39:05.471Z,15.10
2023-02-12T13:41:33.679Z,18.83
2023-02-12T13:44:12.042Z,13.07
2023-02-12T13:46:52.148Z,10.97
2023-02-12T13:49:29.934Z,14.77
2023-02-12T13:52:04.056Z,11.37
2023-02-12T13:54:50.525Z,9.97
2023-02-12T13:57:20.477Z,11.70
2023-02-12T13:59:51.014Z,10.53
2023-02-12T14:02:42.523Z,9.50
2023-02-12T14:05:21.164Z,9.97
2023-02-12T14:07:51.090Z,10.27
2023-02-12T14:10:24.340Z,9.50
2023-02-12T14:12:54.528Z,7.43
2023-02-12T14:15:31.990Z,7.83
2023-02-12T14:18:08.295Z,8.70
2023-02-12T14:20:36.850Z,12.43
2023-02-12T14:23:24.059Z,10.17
2023-02-12T14:26:02.463Z,10.80
2023-02-12T14:28:49.750Z,7.70
2023-02-12T14:31:43.395Z,10.17
2023-02-12T14:34:38.446Z,9.87
2023-02-12T14:37:37.201Z,5.27
2023-02-12T14:40:40.611Z,7.07
2023-02-12T14:43:30.879Z,9.63
2023-02-12T14:46:00.027Z,7.53
2023-02-12T14:48:52.430Z,7.97
2023-02-12T14:51:28.553Z,8.17
2023-02-12T14:53:57.809Z,6.43
2023-02-12T14:56:26.119Z,7.67
2023-02-12T14:58:56.910Z,9.50
2023-02-12T15:01:32.791Z,6.83
2023-02-12T15:04:12.494Z,10.77
2023-02-12T15:06:44.463Z,6.67
2023-02-12T15:09:17.288Z,9.70
2023-02-12T15:11:49.922Z,9.93
2023-02-12T15:14:21.111Z,8.83
2023-02-12T15:16:56.020Z,11.23
2023-02-12T15:19:40.876Z,8.60
2023-02-12T15:22:21.535Z,19.23
2023-02-12T15:24:49.227Z,11.27
2023-02-12T15:27:18.035Z,10.40
2023-02-12T15:29:48.505Z,10.90
2023-02-12T15:32:22.959Z,13.10
2023-02-12T15:34:53.156Z,29.07
2023-02-12T15:37:25.613Z,21.50
2023-02-12T15:39:55.550Z,16.30
2023-02-12T15:42:29.198Z,21.30
2023-02-12T15:45:17.096Z,9.60
2023-02-12T15:47:46.755Z,5.10
2023-02-12T15:50:17.655Z,9.47
2023-02-12T15:52:47.336Z,9.50
2023-02-12T15:55:17.552Z,7.67
2023-02-12T15:57:45.305Z,11.00
2023-02-12T16:00:28.722Z,8.40
2023-02-12T16:02:56.242Z,8.87
2023-02-12T16:05:26.505Z,7.23
2023-02-12T16:07:54.825Z,5.90
2023-02-12T16:10:23.858Z,7.77
2023-02-12T16:12:52.734Z,7.73
2023-02-12T16:15:30.705Z,7.07
2023-02-12T16:17:59.684Z,4.80
2023-02-12T16:20:31.254Z,11.27
2023-02-12T16:22:59.750Z,7.80
2023-02-12T16:25:29.529Z,7.77
2023-02-12T16:28:01.903Z,5.90
2023-02-12T16:30:32.032Z,6.80
2023-02-12T16:33:00.708Z,6.33
2023-02-12T16:35:32.329Z,6.90
2023-02-12T16:38:03.207Z,8.50
2023-02-12T16:40:33.936Z,6.27
2023-02-12T16:43:21.000Z,7.07
2023-02-12T16:45:48.831Z,8.13
2023-02-12T16:48:20.752Z,10.83
2023-02-12T16:50:52.166Z,5.67
2023-02-12T16:53:42.920Z,4.63
2023-02-12T16:56:16.636Z,5.83
2023-02-12T16:58:44.120Z,7.20
2023-02-12T17:01:17.773Z,5.73
2023-02-12T17:03:47.660Z,7.27
2023-02-12T17:06:17.038Z,6.20
2023-02-12T17:08:45.049Z,10.63
2023-02-12T17:11:14.109Z,5.47
2023-02-12T17:13:41.598Z,8.03
2023-02-12T17:16:11.278Z,5.20
2023-02-12T17:18:40.240Z,4.03
2023-02-12T17:21:10.411Z,6.10
2023-02-12T17:23:41.084Z,7.90
2023-02-12T17:26:09.681Z,5.00
2023-02-12T17:28:37.165Z,4.37
2023-02-12T17:31:06.209Z,6.57
2023-02-12T17:33:33.847Z,4.60
2023-02-12T17:36:01.403Z,5.10
2023-02-12T17:38:29.025Z,4.53
2023-02-12T17:40:58.511Z,3.40
2023-02-12T17:43:26.488Z,7.93
2023-02-12T17:45:54.324Z,9.60
2023-02-12T17:48:24.884Z,9.23
2023-02-12T17:50:55.363Z,8.03
2023-02-12T17:53:23.019Z,17.03
2023-02-12T17:55:50.611Z,17.53
2023-02-12T17:58:19.421Z,12.60
2023-02-12T18:00:46.947Z,11.20
2023-02-12T18:03:14.528Z,6.40
2023-02-12T18:05:42.731Z,6.70
2023-02-12T18:08:10.843Z,9.67
2023-02-12T18:10:41.181Z,5.07
2023-02-12T18:13:08.779Z,9.10
2023-02-12T18:15:38.027Z,12.90
2023-02-12T18:18:05.600Z,9.33
2023-02-12T18:20:33.213Z,9.60
2023-02-12T18:23:00.972Z,12.30
2023-02-12T18:25:28.676Z,15.33
2023-02-12T18:27:56.425Z,10.23
2023-02-12T18:30:24.302Z,10.17
2023-02-12T18:32:53.280Z,7.37
2023-02-12T18:35:20.736Z,6.83
2023-02-12T18:37:48.384Z,8.37
2023-02-12T18:40:16.082Z,9.80
2023-02-12T18:42:43.575Z,11.00
2023-02-12T18:45:11.288Z,11.13
2023-02-12T18:47:38.771Z,14.33
2023-02-12T18:50:08.964Z,7.87
2023-02-12T18:52:37.328Z,11.33
2023-02-12T18:55:05.439Z,11.27
2023-02-12T18:57:32.927Z,9.50
2023-02-12T19:00:00.461Z,7.20
2023-02-12T19:02:28.028Z,9.77
2023-02-12T19:04:55.583Z,9.63
2023-02-12T19:07:24.419Z,7.93
2023-02-12T19:09:52.601Z,8.27
2023-02-12T19:12:20.042Z,9.37
2023-02-12T19:14:47.765Z,14.40
2023-02-12T19:17:15.227Z,13.20
2023-02-12T19:19:42.692Z,12.70
2023-02-12T19:22:10.201Z,7.47
2023-02-12T19:24:46.640Z,7.37
2023-02-12T19:27:14.792Z,6.70
2023-02-12T19:29:42.773Z,4.60
2023-02-12T19:32:10.479Z,4.80
2023-02-12T19:34:37.988Z,3.60
2023-02-12T19:37:05.585Z,3.07
2023-02-12T19:39:33.050Z,5.20
2023-02-12T19:42:01.857Z,5.53
2023-02-12T19:44:29.379Z,5.80
2023-02-12T19:46:57.621Z,3.13
2023-02-12T19:49:26.796Z,4.30
2023-02-12T19:51:54.627Z,5.07
2023-02-12T19:54:23.858Z,4.93
2023-02-12T19:56:51.710Z,4.60
2023-02-12T19:59:22.643Z,4.57
2023-02-12T20:01:50.549Z,2.90
2023-02-12T20:04:21.973Z,5.07
2023-02-12T20:06:50.823Z,4.07
2023-02-12T20:09:19.258Z,5.23
2023-02-12T20:11:47.234Z,3.60
2023-02-12T20:14:15.446Z,6.00
2023-02-12T20:16:46.571Z,6.53
2023-02-12T20:19:16.159Z,7.07
2023-02-12T20:21:44.207Z,7.20
2023-02-12T20:24:11.881Z,5.23
2023-02-12T20:26:39.415Z,5.47
2023-02-12T20:29:07.390Z,7.67
2023-02-12T20:31:37.526Z,8.17
2023-02-12T20:34:09.111Z,15.17
2023-02-12T20:36:38.786Z,8.63
2023-02-12T20:39:08.207Z,7.90
2023-02-12T20:41:37.097Z,7.17
2023-02-12T20:44:05.689Z,6.10
2023-02-12T20:46:35.977Z,6.57
2023-02-12T20:49:03.999Z,6.63
2023-02-12T20:51:33.284Z,6.20
2023-02-12T20:54:01.905Z,6.47
2023-02-12T20:56:33.750Z,9.17
2023-02-12T20:59:01.872Z,5.70
2023-02-12T21:01:32.922Z,5.60
2023-02-12T21:04:03.650Z,4.80
2023-02-12T21:06:33.416Z,6.73
2023-02-12T21:09:01.235Z,7.87
2023-02-12T21:11:30.179Z,4.63
2023-02-12T21:14:20.818Z,6.47
2023-02-12T21:16:47.944Z,3.87
2023-02-12T21:19:15.423Z,6.27
2023-02-12T21:21:45.459Z,7.10
2023-02-12T21:24:15.711Z,5.10
2023-02-12T21:26:43.520Z,6.83
2023-02-12T21:29:11.100Z,5.63
2023-02-12T21:31:41.059Z,12.37
2023-02-12T21:34:12.111Z,7.23
2023-02-12T21:36:41.282Z,5.70
2023-02-12T21:39:13.594Z,6.80
2023-02-12T21:41:43.051Z,5.30
2023-02-12T21:44:14.396Z,8.47
2023-02-12T21:46:42.695Z,7.80
2023-02-12T21:49:11.936Z,5.87
2023-02-12T21:51:41.327Z,5.10
2023-02-12T21:54:13.000Z,6.87
2023-02-12T21:56:42.590Z,5.23
2023-02-12T21:59:10.328Z,4.47
2023-02-12T22:01:39.576Z,6.60
2023-02-12T22:04:08.086Z,6.73
2023-02-12T22:06:38.339Z,4.60
2023-02-12T22:09:07.836Z,8.03
2023-02-12T22:11:37.868Z,6.90
2023-02-12T22:14:07.229Z,7.93
2023-02-12T22:16:36.092Z,6.90
2023-02-12T22:19:05.782Z,7.20
2023-02-12T22:21:35.830Z,6.30
2023-02-12T22:24:05.983Z,5.27
2023-02-12T22:26:34.060Z,7.37
2023-02-12T22:29:06.386Z,6.10
2023-02-12T22:31:37.384Z,3.80
2023-02-12T22:34:08.094Z,5.63
2023-02-12T22:36:37.468Z,6.23
2023-02-12T22:39:09.059Z,4.47
2023-02-12T22:41:36.594Z,9.03
2023-02-12T22:44:05.926Z,8.27
2023-02-12T22:46:35.152Z,7.30
2023-02-12T22:49:03.077Z,8.77
2023-02-12T22:51:32.568Z,9.00
2023-02-12T22:54:01.274Z,6.83
2023-02-12T22:56:29.058Z,5.40
2023-02-12T22:58:58.646Z,8.00
2023-02-12T23:01:29.059Z,8.63
2023-02-12T23:03:56.862Z,10.50
2023-02-12T23:06:26.897Z,9.70
2023-02-12T23:08:57.847Z,4.03
2023-02-12T23:11:26.384Z,8.00
2023-02-12T23:13:53.940Z,8.10
2023-02-12T23:16:21.465Z,6.10
2023-02-12T23:19:16.006Z,6.33
2023-02-12T23:21:43.539Z,10.43
2023-02-12T23:24:14.697Z,9.23
2023-02-12T23:26:42.215Z,7.53
2023-02-12T23:29:10.179Z,8.80
2023-02-12T23:31:39.395Z,6.57
2023-02-12T23:34:07.119Z,6.20
2023-02-12T23:36:36.073Z,8.33
2023-02-12T23:39:05.621Z,5.53
2023-02-12T23:41:33.171Z,8.97
2023-02-12T23:44:00.741Z,7.83
2023-02-12T23:46:28.348Z,4.10
2023-02-12T23:48:55.934Z,5.40
2023-02-12T23:51:23.550Z,6.10
2023-02-12T23:53:52.493Z,7.60
2023-02-12T23:56:20.200Z,9.00
2023-02-12T23:58:47.796Z,8.30
